createdAt,value
2022-12-05T00:02:00.951Z,99850.53
2022-12-05T00:06:52.721Z,99839.28
2022-12-05T00:11:45.402Z,99852.19
2022-12-05T00:16:39.731Z,99860.06
2022-12-05T00:21:33.520Z,99847.84
2022-12-05T00:26:26.324Z,99849.84
2022-12-05T00:31:20.898Z,99848.50
2022-12-05T00:36:18.628Z,99836.75
2022-12-05T00:41:13.193Z,99839.97
2022-12-05T00:46:07.789Z,99845.34
2022-12-05T00:51:04.688Z,99839.13
2022-12-05T00:55:56.457Z,99846.00
2022-12-05T01:00:48.479Z,99852.69
2022-12-05T01:05:40.203Z,99844.13
2022-12-05T01:10:32.014Z,99842.47
2022-12-05T01:15:23.687Z,99851.88
2022-12-05T01:20:15.464Z,99848.38
2022-12-05T01:25:07.686Z,99842.50
2022-12-05T01:29:59.662Z,99863.63
2022-12-05T01:34:51.523Z,99856.91
2022-12-05T01:39:43.266Z,99860.78
2022-12-05T01:44:54.822Z,99866.16
2022-12-05T01:49:46.552Z,99860.28
2022-12-05T01:54:38.901Z,99866.31
2022-12-05T01:59:34.142Z,99868.66
2022-12-05T02:04:27.885Z,99866.66
2022-12-05T02:09:20.197Z,99871.00
2022-12-05T02:14:26.004Z,99865.94
2022-12-05T02:19:29.875Z,99872.31
2022-12-05T02:24:49.735Z,99874.66
2022-12-05T02:30:04.625Z,99872.63
2022-12-05T02:35:11.671Z,99867.44
2022-12-05T02:40:14.810Z,99870.44
2022-12-05T02:45:11.002Z,99882.50
2022-12-05T02:50:03.545Z,99879.81
2022-12-05T02:54:56.442Z,99885.19
2022-12-05T02:59:48.119Z,99878.81
2022-12-05T03:04:39.870Z,99887.34
2022-12-05T03:09:36.716Z,99889.03
2022-12-05T03:14:34.803Z,99885.53
2022-12-05T03:19:41.219Z,99902.47
2022-12-05T03:24:37.091Z,99890.03
2022-12-05T03:29:43.948Z,99906.16
2022-12-05T03:34:43.892Z,99899.13
2022-12-05T03:39:39.205Z,99900.78
2022-12-05T03:45:03.061Z,99894.41
2022-12-05T03:50:04.688Z,99897.75
2022-12-05T03:55:01.648Z,99897.91
2022-12-05T03:59:57.628Z,99905.97
2022-12-05T04:04:56.224Z,99900.59
2022-12-05T04:09:56.506Z,99905.16
2022-12-05T04:14:52.499Z,99916.72
2022-12-05T04:20:23.003Z,99922.09
2022-12-05T04:25:34.357Z,99925.81
2022-12-05T04:30:33.835Z,99928.34
2022-12-05T04:35:48.417Z,99936.22
2022-12-05T04:40:52.970Z,99930.00
2022-12-05T04:45:45.330Z,99935.19
2022-12-05T04:50:39.750Z,99946.09
2022-12-05T04:55:35.464Z,99945.94
2022-12-05T05:00:29.703Z,99949.47
2022-12-05T05:05:23.521Z,99952.16
2022-12-05T05:10:18.976Z,99946.97
2022-12-05T05:15:10.937Z,99953.16
2022-12-05T05:20:23.016Z,99954.16
2022-12-05T05:25:15.105Z,99946.63
2022-12-05T05:30:07.818Z,99949.66
2022-12-05T05:34:59.586Z,99955.03
2022-12-05T05:39:51.315Z,99959.75
2022-12-05T05:44:43.000Z,99954.91
2022-12-05T05:49:34.615Z,99965.00
2022-12-05T05:54:26.294Z,99964.47
2022-12-05T05:59:18.021Z,99964.16
2022-12-05T06:04:09.911Z,99976.09
2022-12-05T06:09:01.527Z,99979.13
2022-12-05T06:13:57.098Z,99985.84
2022-12-05T06:18:49.958Z,99995.09
2022-12-05T06:23:42.071Z,99996.59
2022-12-05T06:28:33.793Z,99999.28
2022-12-05T06:33:25.560Z,99989.41
2022-12-05T06:38:17.405Z,99998.28
2022-12-05T06:43:09.507Z,99994.59
2022-12-05T06:48:01.393Z,99991.06
2022-12-05T06:52:53.133Z,100001.97
2022-12-05T06:57:44.803Z,100001.31
2022-12-05T07:02:36.675Z,99995.28
2022-12-05T07:07:29.773Z,100008.88
2022-12-05T07:12:21.915Z,100015.22
2022-12-05T07:17:13.647Z,100019.44
2022-12-05T07:22:07.406Z,100024.63
2022-12-05T07:27:01.038Z,100032.34
2022-12-05T07:31:54.288Z,100029.50
2022-12-05T07:36:46.032Z,100023.09
2022-12-05T07:41:37.876Z,100032.84
2022-12-05T07:46:29.914Z,100034.53
2022-12-05T07:51:22.063Z,100034.38
2022-12-05T07:56:17.265Z,100041.56
2022-12-05T08:01:20.298Z,100055.16
2022-12-05T08:06:17.704Z,100040.06
2022-12-05T08:11:12.599Z,100047.28
2022-12-05T08:16:06.518Z,100064.06
2022-12-05T08:21:05.455Z,100060.03
2022-12-05T08:26:00.919Z,100067.75
2022-12-05T08:30:52.586Z,100068.44
2022-12-05T08:35:44.258Z,100079.00
2022-12-05T08:40:35.989Z,100083.19
2022-12-05T08:45:27.825Z,100098.97
2022-12-05T08:50:19.538Z,100103.81
2022-12-05T08:55:11.278Z,100114.41
2022-12-05T09:00:06.062Z,100114.22
2022-12-05T09:05:09.027Z,100113.91
2022-12-05T09:10:10.329Z,100126.16
2022-12-05T09:15:02.062Z,100123.97
2022-12-05T09:19:53.671Z,100137.06
2022-12-05T09:24:45.347Z,100141.41
2022-12-05T09:29:37.603Z,100140.25
2022-12-05T09:34:29.469Z,100136.53
2022-12-05T09:39:21.352Z,100147.09
2022-12-05T09:44:18.939Z,100146.59
2022-12-05T09:49:12.950Z,100147.59
2022-12-05T09:54:04.810Z,100152.44
2022-12-05T09:59:00.880Z,100156.66
2022-12-05T10:04:26.689Z,100151.59
2022-12-05T10:09:33.118Z,100152.91
2022-12-05T10:14:33.959Z,100161.66
2022-12-05T10:19:32.241Z,100166.34
2022-12-05T10:24:32.169Z,100163.13
2022-12-05T10:29:44.296Z,100168.00
2022-12-05T10:34:40.052Z,100161.22
2022-12-05T10:39:31.900Z,100166.09
2022-12-05T10:44:23.728Z,100157.84
2022-12-05T10:49:15.378Z,100160.69
2022-12-05T10:54:18.504Z,100149.75
2022-12-05T10:59:14.108Z,100141.34
2022-12-05T11:04:21.110Z,100153.59
2022-12-05T11:09:20.106Z,100155.09
2022-12-05T11:14:26.790Z,100146.66
2022-12-05T11:19:21.955Z,100154.69
2022-12-05T11:24:34.075Z,100162.06
2022-12-05T11:29:35.873Z,100154.16
2022-12-05T11:34:38.134Z,100154.00
2022-12-05T11:39:29.838Z,100152.59
2022-12-05T11:44:44.630Z,100160.69
2022-12-05T11:50:04.566Z,100147.91
2022-12-05T11:55:06.871Z,100153.28
2022-12-05T12:00:15.783Z,100149.38
2022-12-05T12:05:27.475Z,100152.56
2022-12-05T12:10:48.531Z,100134.91
2022-12-05T12:15:51.987Z,100144.31
2022-12-05T12:20:46.522Z,100141.38
2022-12-05T12:26:04.448Z,100141.66
2022-12-05T12:31:10.985Z,100142.16
2022-12-05T12:36:28.519Z,100142.63
2022-12-05T12:41:29.191Z,100146.16
2022-12-05T12:46:36.155Z,100139.94
2022-12-05T12:51:31.371Z,100128.34
2022-12-05T12:56:48.106Z,100126.47
2022-12-05T13:01:50.044Z,100140.78
2022-12-05T13:07:10.992Z,100142.81
2022-12-05T13:12:11.539Z,100146.69
2022-12-05T13:17:06.217Z,100143.19
2022-12-05T13:21:59.475Z,100145.03
2022-12-05T13:26:51.288Z,100134.44
2022-12-05T13:31:45.817Z,100146.69
2022-12-05T13:36:59.927Z,100136.28
2022-12-05T13:42:14.633Z,100136.97
2022-12-05T13:47:10.142Z,100135.91
2022-12-05T13:52:10.003Z,100140.31
2022-12-05T13:57:02.798Z,100140.94
2022-12-05T14:01:56.510Z,100131.88
2022-12-05T14:06:48.352Z,100135.19
2022-12-05T14:11:40.003Z,100134.38
2022-12-05T14:16:31.766Z,100122.94
2022-12-05T14:21:45.414Z,100134.19
2022-12-05T14:26:42.985Z,100127.81
2022-12-05T14:31:40.710Z,100128.81
2022-12-05T14:36:33.886Z,100127.47
2022-12-05T14:41:35.616Z,100130.19
2022-12-05T14:46:31.734Z,100131.41
2022-12-05T14:51:32.754Z,100132.75
2022-12-05T14:56:28.172Z,100128.75
2022-12-05T15:01:22.755Z,100137.34
2022-12-05T15:06:16.267Z,100139.41
2022-12-05T15:11:28.434Z,100136.25
2022-12-05T15:16:22.923Z,100133.91
2022-12-05T15:21:26.827Z,100148.56
2022-12-05T15:31:40.604Z,100153.28
2022-12-05T15:36:38.724Z,100154.47
2022-12-05T15:41:30.451Z,100160.84
2022-12-05T15:46:26.148Z,100160.56
2022-12-05T15:51:20.998Z,100153.81
2022-12-05T15:56:31.015Z,100159.38
2022-12-05T16:01:25.118Z,100158.25
2022-12-05T16:06:30.612Z,100165.63
2022-12-05T16:11:22.776Z,100169.53
2022-12-05T16:16:19.278Z,100166.84
2022-12-05T16:21:37.365Z,100177.63
2022-12-05T16:26:29.504Z,100195.78
2022-12-05T16:31:21.601Z,100189.91
2022-12-05T16:36:14.521Z,100203.19
2022-12-05T16:41:09.162Z,100213.13
2022-12-05T16:46:13.323Z,100208.09
2022-12-05T16:51:14.266Z,100208.28
2022-12-05T16:56:07.730Z,100211.31
2022-12-05T17:01:05.963Z,100218.53
2022-12-05T17:05:57.839Z,100208.97
2022-12-05T17:10:52.580Z,100212.66
2022-12-05T17:15:44.363Z,100222.94
2022-12-05T17:20:40.407Z,100230.50
2022-12-05T17:25:36.368Z,100226.16
2022-12-05T17:30:28.277Z,100231.69
2022-12-05T17:35:22.098Z,100231.00
2022-12-05T17:40:14.566Z,100238.25
2022-12-05T17:45:14.971Z,100243.81
2022-12-05T17:50:08.267Z,100238.59
2022-12-05T17:55:00.339Z,100229.00
2022-12-05T17:59:52.517Z,100240.63
2022-12-05T18:04:44.362Z,100242.47
2022-12-05T18:09:36.190Z,100250.72
2022-12-05T18:14:28.455Z,100245.66
2022-12-05T18:19:20.501Z,100254.78
2022-12-05T18:24:12.330Z,100255.94
2022-12-05T18:29:04.200Z,100268.03
2022-12-05T18:33:55.975Z,100272.94
2022-12-05T18:38:52.764Z,100270.25
2022-12-05T18:43:44.745Z,100269.25
2022-12-05T18:48:39.993Z,100281.88
2022-12-05T18:53:33.383Z,100287.06
2022-12-05T18:58:25.122Z,100289.59
2022-12-05T19:03:16.883Z,100285.03
2022-12-05T19:08:08.809Z,100297.13
2022-12-05T19:13:00.769Z,100293.44
2022-12-05T19:17:52.627Z,100291.25
2022-12-05T19:22:44.260Z,100295.25
2022-12-05T19:27:36.108Z,100295.25
2022-12-05T19:32:27.799Z,100308.16
2022-12-05T19:37:19.539Z,100302.28
2022-12-05T19:42:11.264Z,100307.31
2022-12-05T19:47:03.146Z,100308.31
2022-12-05T19:51:54.941Z,100318.22
2022-12-05T19:56:46.732Z,100307.47
2022-12-05T20:01:40.364Z,100298.06
2022-12-05T20:06:43.450Z,100311.63
2022-12-05T20:11:37.733Z,100308.28
2022-12-05T20:16:30.111Z,100295.84
2022-12-05T20:21:23.103Z,100297.72
2022-12-05T20:26:18.098Z,100305.94
2022-12-05T20:31:21.840Z,100305.59
2022-12-05T20:36:17.149Z,100305.44
2022-12-05T20:41:12.143Z,100308.97
2022-12-05T20:46:10.384Z,100304.91
2022-12-05T20:51:07.618Z,100305.06
2022-12-05T20:56:08.007Z,100315.81
2022-12-05T21:01:04.795Z,100305.22
2022-12-05T21:05:57.500Z,100303.72
2022-12-05T21:10:50.891Z,100313.97
2022-12-05T21:15:42.677Z,100303.59
2022-12-05T21:20:38.895Z,100304.09
2022-12-05T21:25:34.207Z,100297.06
2022-12-05T21:30:25.907Z,100302.75
2022-12-05T21:35:17.788Z,100303.59
2022-12-05T21:40:10.118Z,100306.28
2022-12-05T21:45:01.983Z,100308.97
2022-12-05T21:49:54.698Z,100302.06
2022-12-05T21:54:46.692Z,100312.31
2022-12-05T21:59:38.410Z,100306.44
2022-12-05T22:04:30.158Z,100319.22
2022-12-05T22:09:22.037Z,100320.75
2022-12-05T22:14:13.902Z,100310.84
2022-12-05T22:19:05.652Z,100315.88
2022-12-05T22:23:57.308Z,100311.53
2022-12-05T22:28:54.172Z,100324.28
2022-12-05T22:33:45.986Z,100317.41
2022-12-05T22:38:39.892Z,100325.28
2022-12-05T22:43:33.254Z,100322.94
2022-12-05T22:48:26.788Z,100320.09
2022-12-05T22:53:20.635Z,100328.81
2022-12-05T22:58:12.456Z,100318.72
2022-12-05T23:03:04.307Z,100319.75
2022-12-05T23:07:56.376Z,100328.66
2022-12-05T23:12:48.133Z,100321.41
2022-12-05T23:17:41.231Z,100331.00
2022-12-05T23:22:34.950Z,100321.25
2022-12-05T23:27:26.693Z,100326.47
2022-12-05T23:32:18.406Z,100334.38
2022-12-05T23:37:10.093Z,100332.53
2022-12-05T23:42:01.903Z,100329.16
2022-12-05T23:46:53.603Z,100335.72
2022-12-05T23:51:45.394Z,100334.84
2022-12-05T23:56:39.325Z,100329.47
